Kotoka International Airport

DGAA · Greater Accra, Gana

7 de outubro de 2022

Hora Código Clima Temp. Visibilidade Tecto Vento METAR/SPECI
18:00
M
26 °C 10 km+ 1.200 ft 190° 190° 10 kt METAR DGAA 071800Z 19010KT 9999 BKN012 26/24 Q1011 NOSIG
17:00
M
27 °C 10 km+ 1.300 ft 190° 190° 13 kt METAR DGAA 071700Z 19013KT 9999 BKN013 27/23 Q1010 NOSIG
16:00
V
27 °C 10 km+ - 180° 180° 15 kt METAR DGAA 071600Z 18015KT 9999 SCT015 27/23 Q1010 NOSIG
15:00
V
28 °C 10 km+ - 190° 190° 14 kt METAR DGAA 071500Z 19014KT 9999 SCT015 28/24 Q1010 NOSIG
14:00
V
28 °C 10 km+ - 190° 190° 15 kt METAR DGAA 071400Z 19015KT 9999 SCT017 28/23 Q1010 NOSIG
13:00
V
29 °C 10 km+ - 180° 180° 12 kt METAR DGAA 071300Z 18012KT 150V210 9999 SCT019 29/24 Q1011 NOSIG
12:00
V
28 °C 10 km+ - 180° 180° 12 kt METAR DGAA 071200Z 18012KT 9999 SCT017 28/23 Q1012 NOSIG
11:00
V
28 °C 10 km+ - 220° 220° 9 kt METAR DGAA 071100Z 22009KT 9999 SCT015 28/23 Q1014 NOSIG
10:00
V
28 °C 10 km+ - 210° 210° 12 kt METAR DGAA 071000Z 21012KT 180V250 9999 SCT015 28/23 Q1014 NOSIG
09:00
M
27 °C 10 km+ 1.200 ft 250° 250° 8 kt METAR DGAA 070900Z 25008KT 9999 BKN012 27/23 Q1014 NOSIG
08:00
M
26 °C 10 km+ 1.400 ft 250° 250° 9 kt METAR DGAA 070800Z 25009KT 220V280 9999 BKN014 26/23 Q1013 NOSIG
07:00
M
25 °C 10 km+ 1.000 ft 260° 260° 8 kt METAR DGAA 070700Z 26008KT 9999 BKN010 25/23 Q1012 NOSIG
06:00
M
25 °C 10 km+ 1.000 ft 270° 270° 6 kt METAR DGAA 070600Z 27006KT 9999 BKN010 25/23 Q1012 NOSIG
05:00
M
25 °C 10 km+ 1.000 ft 250° 250° 5 kt METAR DGAA 070500Z 25005KT 9999 BKN010 25/23 Q1011 NOSIG
04:00
V
25 °C 10 km+ - 260° 260° 8 kt METAR DGAA 070400Z 26008KT 9999 FEW010 25/23 Q1011 NOSIG
03:00
V
25 °C 10 km+ - 260° 260° 7 kt METAR DGAA 070300Z 26007KT 9999 FEW010 25/23 Q1011 NOSIG
02:00
M
25 °C 10 km+ 1.000 ft 240° 240° 8 kt METAR DGAA 070200Z 24008KT 9999 BKN010 25/23 Q1011 NOSIG
01:00
M
26 °C 10 km+ 1.000 ft 240° 240° 8 kt METAR DGAA 070100Z 24008KT 9999 BKN010 26/23 Q1012 NOSIG
00:00
M
26 °C 10 km+ 1.000 ft 250° 250° 11 kt METAR DGAA 070000Z 25011KT 9999 BKN010 26/23 Q1013 NOSIG

6 de outubro de 2022

Hora Código Clima Temp. Visibilidade Tecto Vento METAR/SPECI
23:00
M
26 °C 10 km+ 1.000 ft 230° 230° 10 kt METAR DGAA 062300Z 23010KT 9999 BKN010 26/24 Q1013 NOSIG
22:00
M
26 °C 10 km+ 1.000 ft 220° 220° 10 kt METAR DGAA 062200Z 22010KT 9999 BKN010 26/24 Q1013 NOSIG
21:00
M
26 °C 10 km+ 1.000 ft 220° 220° 13 kt METAR DGAA 062100Z 22013KT 9999 BKN010 26/23 Q1013 NOSIG
20:00
M
26 °C 10 km+ 1.000 ft 210° 210° 17 kt METAR DGAA 062000Z 21017KT 9999 BKN010 26/24 Q1012 NOSIG
19:00
M
26 °C 10 km+ 1.000 ft 210° 210° 14 kt METAR DGAA 061900Z 21014KT 9999 BKN010 FEW030CB 26/24 Q1011 NOSIG
18:00
V
26 °C 10 km+ - 200° 200° 15 kt METAR DGAA 061800Z 20015KT 9999 SCT010 FEW030CB 26/24 Q1010 NOSIG
17:00
V
27 °C 10 km+ - 200° 200° 17 kt METAR DGAA 061700Z 20017KT 9999 FEW012 FEW030CB 27/24 Q1010 NOSIG
16:00
V
28 °C 10 km+ - 210° 210° 17 kt METAR DGAA 061600Z 21017KT 9999 FEW030CB 28/23 Q1010 NOSIG
15:00
V
29 °C 10 km+ - 210° 210° 15 kt METAR DGAA 061500Z 21015KT 9999 FEW030CB 29/23 Q1010 NOSIG
14:00
V
29 °C 10 km+ - 200° 200° 14 kt METAR DGAA 061400Z 20014KT 9999 FEW022 29/23 Q1010 NOSIG
13:00
V
30 °C 10 km+ - 200° 200° 14 kt METAR DGAA 061300Z 20014KT 9999 SCT022 30/24 Q1011 NOSIG
12:00
V
29 °C 10 km+ - 190° 190° 13 kt METAR DGAA 061200Z 19013KT 160V220 9999 SCT020 29/24 Q1012 NOSIG
11:00
V
29 °C 10 km+ - 230° 230° 10 kt METAR DGAA 061100Z 23010KT 9999 FEW010 SCT016 29/23 Q1013 NOSIG
10:00
V
29 °C 10 km+ - 240° 240° 11 kt METAR DGAA 061000Z 24011KT 220V290 9999 SCT016 29/23 Q1014 NOSIG
09:00
V
27 °C 10 km+ - 240° 240° 9 kt METAR DGAA 060900Z 24009KT 9999 SCT015 27/23 Q1014 NOSIG
08:00
V
26 °C 10 km+ - 250° 250° 9 kt METAR DGAA 060800Z 25009KT CAVOK 26/23 Q1013 NOSIG
07:00
V
24 °C 10 km+ - 270° 270° 8 kt METAR DGAA 060700Z 27008KT CAVOK 24/23 Q1012 NOSIG
06:00
V
24 °C 10 km+ - 250° 250° 8 kt METAR DGAA 060600Z 25008KT CAVOK 24/23 Q1012 NOSIG
05:00
V
24 °C 10 km+ - 260° 260° 7 kt METAR DGAA 060500Z 26007KT 9999 SCT010 24/23 Q1011 NOSIG
04:00
V
24 °C 10 km+ - 260° 260° 9 kt METAR DGAA 060400Z 26009KT 9999 SCT010 24/23 Q1011 NOSIG
03:00
M
25 °C 10 km+ 1.000 ft 250° 250° 8 kt METAR DGAA 060300Z 25008KT 9999 BKN010 25/23 Q1011 NOSIG
02:00
M
25 °C 10 km+ 1.000 ft 260° 260° 8 kt METAR DGAA 060200Z 26008KT 9999 BKN010 25/24 Q1012 NOSIG
01:00
V
25 °C 10 km+ - 250° 250° 5 kt METAR DGAA 060100Z 25005KT 9999 SCT010 25/23 Q1012 NOSIG
00:00
V
25 °C 10 km+ - 240° 240° 10 kt METAR DGAA 060000Z 24010KT 9999 SCT012 25/24 Q1012 NOSIG

5 de outubro de 2022

Hora Código Clima Temp. Visibilidade Tecto Vento METAR/SPECI
23:00
M
26 °C 10 km+ 1.200 ft 230° 230° 8 kt METAR DGAA 052300Z 23008KT 9999 BKN012 26/24 Q1013 NOSIG
21:00
M
26 °C 10 km+ 1.200 ft 230° 230° 10 kt METAR DGAA 052100Z 23010KT 9999 BKN012 26/24 Q1012 NOSIG
20:00
M
26 °C 10 km+ 1.200 ft 220° 220° 11 kt METAR DGAA 052000Z 22011KT 9999 BKN012 26/24 Q1012 NOSIG
17:00
V
27 °C 10 km+ - 210° 210° 13 kt METAR DGAA 051700Z 21013KT 9999 FEW012 SCT017 FEW030CB 27/23 Q1010 NOSIG
16:00
V
27 °C 10 km+ 3.000 ft 200° 200° 14 kt METAR DGAA 051600Z 20014KT 9999 SCT017 BKN030CB 27/24 Q1010 NOSIG
15:00
V
28 °C 10 km+ - 190° 190° 12 kt METAR DGAA 051500Z 19012KT 9999 SCT017 28/24 Q1010 NOSIG
Dados mais antigos

Nós e terceiros acompanhamos seu comportamento na internet em nosso site com cookies. Se você continuar, nós assumimos que você concorda com nossa política de cookies. Saiba mais